Time;durP1;ratioP1;P1;durP2;ratioP2;P2;SDS_P1;SDS_P2;PMS_P1;PMS_P2;Temp;Humidity;BMP_temperature;BMP_pressure;BME280_temperature;BME280_humidity;BME280_pressure;Samples;Min_cycle;Max_cycle;Signal;HPM_P1;HPM_P2
2023/08/19 00:03:44;;;;;;;16.52;14.77;;;;;;;20.40;80.76;97732.66;10370843;28;20080;-55
2023/08/19 00:08:43;;;;;;;16.88;14.43;;;;;;;20.41;80.63;97734.38;10372862;28;20024;-55
2023/08/19 00:13:42;;;;;;;17.98;14.07;;;;;;;20.35;80.73;97724.06;10372563;28;20024;-55
2023/08/19 00:18:41;;;;;;;16.88;14.27;;;;;;;20.33;80.60;97723.25;10372062;28;20031;-55
2023/08/19 00:23:40;;;;;;;16.15;13.20;;;;;;;20.19;80.27;97692.19;10369911;28;20047;-55
2023/08/19 00:28:39;;;;;;;16.92;13.38;;;;;;;20.17;80.18;97697.53;10370893;28;20678;-55
2023/08/19 00:33:38;;;;;;;15.35;12.63;;;;;;;20.01;80.59;97683.28;10371570;28;20064;-55
2023/08/19 00:38:37;;;;;;;16.90;12.63;;;;;;;20.22;80.39;97707.91;10374491;28;20086;-55
2023/08/19 00:43:37;;;;;;;16.77;12.85;;;;;;;20.13;81.12;97722.28;10374180;28;20125;-55
2023/08/19 00:48:36;;;;;;;16.52;13.35;;;;;;;20.12;81.14;97717.97;10373983;28;20503;-55
2023/08/19 00:53:35;;;;;;;18.60;14.23;;;;;;;20.05;81.55;97708.59;10373442;28;20511;-55
2023/08/19 00:58:34;;;;;;;20.85;15.48;;;;;;;20.03;81.74;97703.38;10373992;28;20025;-55
2023/08/19 01:03:34;;;;;;;21.83;15.57;;;;;;;19.92;82.25;97702.09;10371479;28;20071;-55
2023/08/19 01:08:42;;;;;;;19.33;15.50;;;;;;;19.83;82.55;97706.78;10372268;28;20067;-55
2023/08/19 01:13:58;;;;;;;21.33;15.68;;;;;;;19.54;82.86;97664.91;10367147;28;20574;-55
2023/08/19 01:18:59;;;;;;;20.35;15.68;;;;;;;19.75;82.56;97708.88;10369877;28;20069;-55
2023/08/19 01:23:59;;;;;;;17.75;15.18;;;;;;;19.69;83.32;97703.81;10364113;28;20087;-55
2023/08/19 01:28:58;;;;;;;19.73;16.08;;;;;;;19.63;83.68;97701.44;10373036;28;20060;-55
2023/08/19 01:33:57;;;;;;;18.58;15.93;;;;;;;19.59;84.16;97699.84;10361579;28;20108;-55
2023/08/19 01:39:02;;;;;;;18.80;16.88;;;;;;;19.56;84.59;97692.06;10367025;28;20551;-55
2023/08/19 01:44:02;;;;;;;19.15;16.30;;;;;;;19.15;84.89;97623.41;10369120;28;20076;-55
2023/08/19 01:49:01;;;;;;;20.50;17.00;;;;;;;19.28;85.08;97650.97;10368274;28;20120;-55
2023/08/19 01:54:00;;;;;;;20.05;16.67;;;;;;;19.40;85.39;97681.22;10366918;28;20078;-55
2023/08/19 01:59:00;;;;;;;20.90;16.63;;;;;;;19.34;85.25;97682.28;10368859;28;20065;-55
2023/08/19 02:03:59;;;;;;;19.10;16.20;;;;;;;19.27;86.06;97685.22;10362290;28;20104;-55
2023/08/19 02:08:58;;;;;;;20.27;16.58;;;;;;;19.23;86.04;97685.34;10367701;28;20037;-55
2023/08/19 02:13:56;;;;;;;23.17;17.38;;;;;;;19.19;86.67;97685.50;10364970;28;20538;-55
2023/08/19 02:18:59;;;;;;;18.00;15.82;;;;;;;19.16;86.76;97685.63;10367220;28;20208;-55
2023/08/19 02:23:58;;;;;;;18.00;16.13;;;;;;;19.11;86.92;97692.81;10364871;28;20075;-55
2023/08/19 02:28:57;;;;;;;20.70;17.50;;;;;;;19.06;87.22;97687.72;10365302;28;20124;-55
2023/08/19 02:33:56;;;;;;;20.20;16.17;;;;;;;19.05;87.02;97690.44;10367254;28;20025;-55
2023/08/19 02:38:55;;;;;;;20.00;16.70;;;;;;;18.94;87.04;97696.06;10367157;28;20033;-55
2023/08/19 02:43:54;;;;;;;18.30;16.40;;;;;;;18.77;87.22;97710.66;10367161;28;20056;-55
2023/08/19 02:48:53;;;;;;;20.92;18.02;;;;;;;18.69;87.13;97709.19;10365283;28;20069;-55
2023/08/19 02:53:52;;;;;;;20.85;18.65;;;;;;;18.50;88.54;97714.19;10349989;28;20017;-55
2023/08/19 02:58:51;;;;;;;23.08;20.13;;;;;;;18.15;90.48;97713.56;10366896;28;20027;-55
2023/08/19 03:03:50;;;;;;;22.73;19.45;;;;;;;18.01;91.72;97711.41;10366355;28;20043;-55
2023/08/19 03:08:49;;;;;;;24.42;20.30;;;;;;;17.98;91.75;97716.75;10366665;28;20108;-55
2023/08/19 03:13:48;;;;;;;26.33;21.38;;;;;;;18.01;91.31;97716.66;10362827;28;20036;-55
2023/08/19 03:18:47;;;;;;;27.08;22.80;;;;;;;18.11;91.06;97723.31;10365296;28;20118;-55
2023/08/19 03:23:46;;;;;;;28.65;23.35;;;;;;;18.09;91.28;97709.38;10361666;28;20021;-55
2023/08/19 03:28:45;;;;;;;26.92;21.90;;;;;;;17.85;91.13;97674.28;10365789;28;20098;-55
2023/08/19 03:33:44;;;;;;;27.83;23.80;;;;;;;18.11;91.14;97728.59;10364317;28;20115;-55
2023/08/19 03:38:43;;;;;;;28.95;24.90;;;;;;;18.13;90.87;97723.28;10365046;28;20027;-55
2023/08/19 03:43:42;;;;;;;27.73;22.85;;;;;;;18.13;90.96;97734.66;10367309;28;20037;-55
2023/08/19 03:48:41;;;;;;;23.88;21.33;;;;;;;18.17;90.70;97732.75;10364658;28;20511;-55
2023/08/19 03:53:42;;;;;;;25.83;20.73;;;;;;;18.21;90.44;97744.06;10369185;28;20017;-55
2023/08/19 03:58:41;;;;;;;22.38;19.23;;;;;;;18.17;90.33;97735.41;10369468;28;20067;-55
2023/08/19 04:03:40;;;;;;;22.98;20.48;;;;;;;18.25;90.35;97737.78;10367084;28;20035;-55
2023/08/19 04:08:39;;;;;;;24.80;19.50;;;;;;;18.34;90.26;97750.63;10369476;28;20104;-55
2023/08/19 04:13:38;;;;;;;23.80;19.42;;;;;;;18.40;90.04;97739.91;10349548;28;20531;-54
2023/08/19 04:18:37;;;;;;;22.50;19.05;;;;;;;18.50;89.86;97756.22;10376105;28;20400;-55
2023/08/19 04:23:36;;;;;;;23.52;19.10;;;;;;;18.55;89.51;97754.31;10372398;28;20047;-54
2023/08/19 04:28:36;;;;;;;25.10;19.25;;;;;;;18.35;89.00;97710.31;10376084;28;20087;-54
2023/08/19 04:33:35;;;;;;;23.08;17.50;;;;;;;18.71;88.37;97759.94;10374424;28;20052;-55
2023/08/19 04:38:34;;;;;;;22.83;18.00;;;;;;;18.76;87.80;97760.66;10371798;28;20654;-55
2023/08/19 04:43:33;;;;;;;23.52;18.65;;;;;;;18.83;87.53;97764.81;10369992;28;20739;-55
2023/08/19 04:48:32;;;;;;;23.35;18.48;;;;;;;18.86;87.35;97756.81;10367890;28;20083;-55
2023/08/19 04:53:31;;;;;;;22.58;18.30;;;;;;;18.94;87.32;97772.31;10381413;28;20068;-55
2023/08/19 04:58:30;;;;;;;23.83;18.15;;;;;;;19.09;86.41;97787.56;10338553;28;20076;-55
2023/08/19 05:03:29;;;;;;;22.90;17.10;;;;;;;19.10;86.36;97786.66;10329317;28;20124;-55
2023/08/19 05:08:29;;;;;;;24.13;17.13;;;;;;;19.31;85.54;97803.47;10329908;28;20070;-55
2023/08/19 05:13:28;;;;;;;21.45;15.25;;;;;;;19.48;85.30;97799.34;10329210;28;20053;-55
2023/08/19 05:18:28;;;;;;;22.13;15.85;;;;;;;19.40;83.99;97766.28;10329989;28;20040;-55
2023/08/19 05:23:27;;;;;;;17.85;14.70;;;;;;;19.69;83.11;97808.28;10326511;28;20104;-55
2023/08/19 05:28:26;;;;;;;19.85;14.77;;;;;;;19.70;83.25;97821.41;10328196;28;20036;-55
2023/08/19 05:33:25;;;;;;;15.48;13.80;;;;;;;19.64;82.26;97769.81;10327214;28;20087;-55
2023/08/19 05:38:24;;;;;;;15.77;12.25;;;;;;;19.95;81.92;97794.13;10327806;28;20035;-55
2023/08/19 05:43:22;;;;;;;15.82;10.20;;;;;;;20.29;79.42;97793.69;10327535;28;20041;-55
2023/08/19 05:48:21;;;;;;;15.60;12.85;;;;;;;20.47;78.58;97800.06;10328573;28;20048;-55
2023/08/19 05:53:20;;;;;;;17.52;13.52;;;;;;;20.48;79.94;97809.66;10327895;28;20464;-55
2023/08/19 05:58:19;;;;;;;17.85;12.90;;;;;;;20.60;79.25;97811.78;10329022;28;20039;-55
2023/08/19 06:03:18;;;;;;;16.83;12.88;;;;;;;20.88;79.11;97815.94;10326419;28;20041;-55
2023/08/19 06:08:17;;;;;;;16.80;11.93;;;;;;;21.24;77.90;97813.56;10327811;28;20546;-55
2023/08/19 06:13:16;;;;;;;13.57;11.50;;;;;;;21.59;76.31;97807.66;10320298;28;20100;-55
2023/08/19 06:18:15;;;;;;;14.95;11.07;;;;;;;21.93;74.46;97815.75;10326687;28;20112;-55
2023/08/19 06:23:14;;;;;;;13.80;11.73;;;;;;;22.07;72.45;97819.59;10325541;28;20028;-55
2023/08/19 06:28:13;;;;;;;15.25;10.98;;;;;;;22.33;70.52;97823.66;10322184;28;20037;-55
2023/08/19 06:33:13;;;;;;;17.08;11.55;;;;;;;22.54;67.81;97827.06;10320593;28;20030;-55
2023/08/19 06:38:18;;;;;;;13.73;11.07;;;;;;;22.72;67.83;97842.03;10324904;28;20061;-56
2023/08/19 06:43:19;;;;;;;16.80;11.50;;;;;;;22.97;67.34;97831.09;10324998;28;20670;-55
2023/08/19 06:48:20;;;;;;;13.10;10.98;;;;;;;23.19;64.58;97815.00;10326322;28;20453;-55
2023/08/19 06:53:21;;;;;;;11.93;10.45;;;;;;;23.42;64.07;97827.06;10325555;28;20116;-56
2023/08/19 06:58:26;;;;;;;14.57;10.77;;;;;;;23.80;63.99;97823.38;10325577;28;20076;-56
2023/08/19 07:03:32;;;;;;;11.02;8.65;;;;;;;23.92;59.64;97772.34;10324762;28;20542;-56
2023/08/19 07:08:36;;;;;;;9.55;8.38;;;;;;;24.45;57.32;97831.31;10324020;28;20061;-56
2023/08/19 07:13:36;;;;;;;13.00;9.05;;;;;;;24.67;56.81;97830.97;10322667;28;20108;-56
2023/08/19 07:18:40;;;;;;;17.90;8.88;;;;;;;24.93;56.48;97831.31;10319360;28;20109;-55
2023/08/19 07:23:40;;;;;;;10.85;8.52;;;;;;;25.26;55.87;97823.16;10323958;28;20065;-55
2023/08/19 07:28:39;;;;;;;10.63;7.97;;;;;;;25.51;53.14;97830.50;10322622;28;20128;-56
2023/08/19 07:33:38;;;;;;;14.40;10.88;;;;;;;25.43;53.54;97830.09;10322965;28;20063;-55
2023/08/19 07:38:37;;;;;;;14.32;8.95;;;;;;;25.19;53.64;97824.47;10321214;28;20022;-56
2023/08/19 07:43:36;;;;;;;11.73;9.00;;;;;;;25.10;53.43;97789.53;10321239;28;20153;-55
2023/08/19 07:48:35;;;;;;;12.15;8.93;;;;;;;25.21;52.92;97822.56;10330010;28;20104;-55
2023/08/19 07:53:34;;;;;;;10.45;8.82;;;;;;;25.21;53.27;97825.22;10325749;28;20026;-56
2023/08/19 07:58:34;;;;;;;10.30;8.10;;;;;;;25.47;52.32;97828.97;10326170;28;20033;-57
2023/08/19 08:03:33;;;;;;;9.98;7.85;;;;;;;25.35;51.27;97830.56;10327131;28;20125;-54
2023/08/19 08:08:32;;;;;;;9.73;7.78;;;;;;;25.79;50.56;97834.19;10331138;28;20120;-54
2023/08/19 08:13:32;;;;;;;9.43;7.20;;;;;;;26.03;48.82;97839.78;10331134;28;20033;-54
2023/08/19 08:18:30;;;;;;;10.15;7.22;;;;;;;25.95;48.93;97776.44;10330407;28;20088;-54
2023/08/19 08:23:29;;;;;;;10.50;7.70;;;;;;;26.21;48.81;97814.72;10329624;28;20073;-56
2023/08/19 08:28:28;;;;;;;8.00;7.20;;;;;;;26.27;47.70;97827.59;10331531;28;20033;-54
2023/08/19 08:33:27;;;;;;;8.13;7.00;;;;;;;26.07;48.07;97793.44;10330106;28;20040;-54
2023/08/19 08:38:27;;;;;;;10.45;7.22;;;;;;;26.35;48.59;97825.31;10334342;28;20052;-54
2023/08/19 08:43:26;;;;;;;8.85;6.75;;;;;;;26.51;48.87;97827.84;10333090;28;20092;-54
2023/08/19 08:48:29;;;;;;;9.93;6.95;;;;;;;26.54;49.33;97834.78;10333477;28;20073;-54
2023/08/19 08:53:29;;;;;;;9.13;6.32;;;;;;;26.62;48.38;97828.94;10332958;28;20053;-56
2023/08/19 08:58:28;;;;;;;8.02;6.53;;;;;;;27.01;48.72;97814.00;10332322;28;20063;-54
2023/08/19 09:03:31;;;;;;;9.63;6.68;;;;;;;27.20;47.14;97828.63;10332762;28;20492;-55
2023/08/19 09:08:47;;;;;;;10.55;6.90;;;;;;;27.38;46.75;97831.88;10330749;28;20061;-55
2023/08/19 09:13:47;;;;;;;8.93;6.70;;;;;;;27.41;46.54;97828.13;10332666;28;20061;-55
2023/08/19 09:18:47;;;;;;;7.75;6.38;;;;;;;27.75;46.08;97816.03;10330146;28;20064;-55
2023/08/19 09:23:46;;;;;;;9.68;6.78;;;;;;;27.60;45.39;97761.09;10331269;28;20069;-55
2023/08/19 09:28:45;;;;;;;9.25;6.70;;;;;;;28.05;45.40;97801.47;10331700;28;20036;-55
2023/08/19 09:33:44;;;;;;;9.27;6.57;;;;;;;27.82;45.74;97811.97;10329320;28;20570;-60
2023/08/19 09:38:43;;;;;;;7.55;6.65;;;;;;;27.96;45.07;97802.13;10325789;28;20092;-55
2023/08/19 09:43:42;;;;;;;9.48;6.40;;;;;;;27.73;45.74;97801.94;10325883;28;20038;-55
2023/08/19 09:48:52;;;;;;;6.90;6.13;;;;;;;27.91;45.28;97793.59;10326295;28;20033;-55
2023/08/19 09:53:51;;;;;;;8.88;5.88;;;;;;;27.87;45.94;97798.31;10327342;28;20056;-55
2023/08/19 09:58:52;;;;;;;9.70;6.30;;;;;;;27.66;44.72;97773.13;10326505;28;20067;-55
2023/08/19 10:03:52;;;;;;;8.65;6.60;;;;;;;27.89;44.62;97800.84;10327417;28;20457;-56
2023/08/19 10:09:07;;;;;;;7.68;6.07;;;;;;;28.01;44.43;97768.00;10327295;28;20052;-56
2023/08/19 10:14:08;;;;;;;12.77;6.38;;;;;;;28.64;43.21;97790.97;10324713;28;20068;-56
2023/08/19 10:19:09;;;;;;;9.98;6.18;;;;;;;28.75;42.28;97784.00;10326270;28;20057;-56
2023/08/19 10:24:09;;;;;;;9.20;6.28;;;;;;;28.65;42.33;97781.13;10325931;28;20112;-56
2023/08/19 10:29:08;;;;;;;9.25;5.70;;;;;;;28.85;41.66;97795.69;10326254;28;20496;-55
2023/08/19 10:34:26;;;;;;;6.85;5.50;;;;;;;28.74;41.09;97788.50;10327658;28;20109;-55
2023/08/19 10:39:30;;;;;;;8.32;5.93;;;;;;;28.62;41.11;97747.50;10325993;28;20060;-55
2023/08/19 10:44:33;;;;;;;8.30;5.78;;;;;;;29.12;39.91;97781.22;10325264;28;20108;-55
2023/08/19 10:49:34;;;;;;;7.45;5.78;;;;;;;29.50;39.96;97776.44;10325252;28;20056;-55
2023/08/19 10:54:41;;;;;;;5.97;5.35;;;;;;;29.84;38.59;97781.88;10322259;28;20064;-56
2023/08/19 10:59:54;;;;;;;8.55;5.57;;;;;;;30.34;38.27;97776.09;10326555;28;20510;-56
2023/08/19 11:04:53;;;;;;;6.10;4.90;;;;;;;30.79;36.77;97762.56;10323286;28;20061;-56
2023/08/19 11:09:56;;;;;;;7.53;4.93;;;;;;;31.15;34.68;97761.34;10325326;28;20072;-56
2023/08/19 11:14:55;;;;;;;5.55;4.93;;;;;;;31.01;34.87;97761.66;10323977;28;20653;-56
2023/08/19 11:19:54;;;;;;;7.03;4.47;;;;;;;31.35;35.06;97764.97;10328713;28;20072;-56
2023/08/19 11:24:53;;;;;;;7.30;4.55;;;;;;;31.38;33.40;97751.31;10333551;28;20113;-56
2023/08/19 11:29:53;;;;;;;5.97;4.15;;;;;;;31.25;33.28;97747.16;10333717;28;20056;-56
2023/08/19 11:34:52;;;;;;;8.88;4.68;;;;;;;31.08;33.77;97748.59;10334513;28;20053;-56
2023/08/19 11:39:51;;;;;;;7.25;4.45;;;;;;;31.56;33.41;97734.63;10335577;28;20156;-56
2023/08/19 11:44:50;;;;;;;7.10;4.22;;;;;;;32.16;32.23;97727.53;10329081;28;20049;-56
2023/08/19 11:49:50;;;;;;;6.03;4.32;;;;;;;32.22;31.78;97726.13;10332542;28;20033;-56
2023/08/19 11:55:06;;;;;;;6.18;4.22;;;;;;;32.30;30.88;97715.53;10334892;28;20076;-57
2023/08/19 12:00:13;;;;;;;4.78;4.10;;;;;;;32.15;31.00;97719.59;10333301;28;20052;-56
2023/08/19 12:05:21;;;;;;;4.70;3.97;;;;;;;32.10;31.13;97703.91;10333778;28;20060;-56
2023/08/19 12:10:20;;;;;;;8.65;4.10;;;;;;;32.19;31.16;97712.97;10332830;28;20061;-56
2023/08/19 12:15:19;;;;;;;6.35;4.57;;;;;;;32.14;30.87;97665.06;10332716;28;20125;-56
2023/08/19 12:20:18;;;;;;;4.55;4.13;;;;;;;31.85;31.01;97667.69;10334067;28;20163;-56
2023/08/19 12:25:17;;;;;;;6.68;4.00;;;;;;;31.83;31.49;97696.47;10333449;28;20065;-56
2023/08/19 12:30:16;;;;;;;7.97;3.97;;;;;;;32.06;30.45;97661.38;10332620;28;20476;-56
2023/08/19 12:35:15;;;;;;;5.65;3.67;;;;;;;32.47;30.27;97694.34;10333088;28;20824;-56
2023/08/19 12:40:14;;;;;;;6.57;3.88;;;;;;;32.83;31.07;97682.06;10328259;28;20104;-57
2023/08/19 12:45:13;;;;;;;5.75;3.85;;;;;;;32.83;30.25;97701.72;10330199;28;20060;-56
2023/08/19 12:50:12;;;;;;;7.13;4.10;;;;;;;32.65;30.29;97690.00;10328931;28;20484;-56
2023/08/19 12:55:14;;;;;;;7.30;4.30;;;;;;;32.42;30.88;97701.00;10327296;28;20736;-56
2023/08/19 13:00:15;;;;;;;5.93;3.70;;;;;;;32.05;30.91;97673.09;10328885;28;20052;-56
2023/08/19 13:05:14;;;;;;;6.65;3.90;;;;;;;31.63;31.92;97670.56;10344715;28;20072;-56
2023/08/19 13:10:16;;;;;;;6.30;4.20;;;;;;;31.91;32.18;97704.69;10329462;28;20124;-56
2023/08/19 13:15:17;;;;;;;7.22;4.60;;;;;;;31.87;31.67;97692.50;10324788;28;20565;-56
2023/08/19 13:20:20;;;;;;;6.45;4.50;;;;;;;32.03;31.46;97701.88;10327521;28;20056;-57
2023/08/19 13:25:19;;;;;;;5.93;4.43;;;;;;;32.14;31.87;97709.88;10327482;28;20084;-57
2023/08/19 13:30:19;;;;;;;5.97;4.00;;;;;;;32.00;32.08;97697.66;10328004;28;20037;-56
2023/08/19 13:35:18;;;;;;;6.78;4.25;;;;;;;31.96;31.86;97697.06;10328771;28;20112;-56
2023/08/19 13:40:17;;;;;;;8.48;4.45;;;;;;;31.89;32.29;97697.75;10327600;28;20543;-56
2023/08/19 13:45:16;;;;;;;5.57;4.22;;;;;;;31.68;31.34;97697.84;10327610;28;20544;-56
2023/08/19 13:50:15;;;;;;;5.20;3.92;;;;;;;31.49;31.87;97704.78;10325905;28;20488;-56
2023/08/19 13:55:15;;;;;;;7.28;4.65;;;;;;;31.38;31.81;97702.19;10323293;28;20040;-56
2023/08/19 14:00:16;;;;;;;7.35;4.57;;;;;;;31.13;32.43;97690.91;10325616;28;20543;-56
2023/08/19 14:05:18;;;;;;;12.60;4.55;;;;;;;30.96;32.73;97688.84;10326005;28;20109;-56
2023/08/19 14:10:17;;;;;;;6.32;4.20;;;;;;;30.78;32.86;97680.50;10326968;28;20053;-56
2023/08/19 14:15:16;;;;;;;6.00;4.30;;;;;;;30.49;33.76;97699.03;10326789;28;20679;-56
2023/08/19 14:20:16;;;;;;;6.13;4.32;;;;;;;30.28;34.42;97717.69;10327460;28;20705;-56
2023/08/19 14:25:15;;;;;;;5.72;4.57;;;;;;;30.17;34.80;97721.25;10325487;28;20520;-56
2023/08/19 14:30:14;;;;;;;6.32;4.70;;;;;;;30.01;35.39;97681.50;10324965;28;20550;-56
2023/08/19 14:35:13;;;;;;;5.32;4.45;;;;;;;30.02;34.64;97720.66;10328014;28;20101;-56
2023/08/19 14:40:13;;;;;;;8.20;4.85;;;;;;;30.25;35.53;97718.78;10329308;28;20022;-56
2023/08/19 14:45:12;;;;;;;9.05;4.70;;;;;;;30.28;35.49;97699.81;10326361;28;20488;-56
2023/08/19 14:50:11;;;;;;;6.50;4.55;;;;;;;30.55;35.07;97719.94;10328526;28;20083;-56
2023/08/19 14:55:10;;;;;;;10.40;4.95;;;;;;;30.75;35.37;97723.66;10328372;28;20029;-56
2023/08/19 15:00:12;;;;;;;10.25;4.70;;;;;;;30.97;33.94;97711.97;10328734;28;20686;-56
2023/08/19 15:05:12;;;;;;;9.63;4.50;;;;;;;30.46;33.60;97610.91;10326027;28;20146;-57
2023/08/19 15:10:11;;;;;;;6.13;4.82;;;;;;;30.80;34.35;97675.03;10328822;28;20071;-56
2023/08/19 15:15:11;;;;;;;5.97;4.78;;;;;;;30.81;33.36;97701.69;10323260;28;20061;-56
2023/08/19 15:20:10;;;;;;;5.88;5.22;;;;;;;30.63;33.43;97696.06;10313479;28;20115;-56
2023/08/19 15:25:10;;;;;;;9.63;4.55;;;;;;;30.32;33.67;97703.06;10318050;28;20515;-56
2023/08/19 15:30:09;;;;;;;7.88;5.15;;;;;;;30.03;34.82;97698.28;10316532;28;20708;-56
2023/08/19 15:35:08;;;;;;;9.30;5.65;;;;;;;29.77;35.34;97676.31;10315725;28;20064;-56
2023/08/19 15:40:09;;;;;;;8.25;4.97;;;;;;;29.88;35.57;97695.03;10317671;28;20064;-56
2023/08/19 15:45:08;;;;;;;24.50;13.07;;;;;;;29.67;35.56;97670.84;10319885;28;20129;-56
2023/08/19 15:50:08;;;;;;;7.70;4.95;;;;;;;29.36;35.72;97684.94;10325238;28;20068;-56
2023/08/19 15:55:08;;;;;;;6.65;4.05;;;;;;;27.54;37.44;97502.97;10322806;28;20344;-56
2023/08/19 16:00:09;;;;;;;6.88;5.30;;;;;;;27.80;40.88;97707.22;10322303;28;20694;-56
2023/08/19 16:05:09;;;;;;;8.73;5.55;;;;;;;27.34;42.22;97698.94;10322233;28;20176;-56
2023/08/19 16:10:10;;;;;;;9.05;5.45;;;;;;;27.34;42.26;97705.13;10328236;28;20565;-56
2023/08/19 16:15:09;;;;;;;17.45;6.28;;;;;;;27.40;42.21;97702.03;10328739;28;20539;-56
2023/08/19 16:20:09;;;;;;;9.43;5.15;;;;;;;27.09;42.31;97659.84;10330232;28;20152;-56
2023/08/19 16:25:08;;;;;;;10.25;5.35;;;;;;;27.44;42.24;97704.47;10327712;28;20109;-56
2023/08/19 16:30:07;;;;;;;10.93;5.43;;;;;;;27.57;42.18;97705.34;10327182;28;20064;-56
2023/08/19 16:35:07;;;;;;;9.73;5.25;;;;;;;27.61;42.24;97714.81;10327513;28;20061;-56
2023/08/19 16:40:07;;;;;;;9.02;5.00;;;;;;;27.49;42.63;97687.22;10330103;28;20125;-56
2023/08/19 16:45:07;;;;;;;7.85;5.70;;;;;;;27.64;43.17;97721.78;10329366;28;20460;-56
2023/08/19 16:50:06;;;;;;;10.63;6.50;;;;;;;27.57;43.11;97721.34;10328256;28;20064;-56
2023/08/19 16:55:06;;;;;;;9.95;7.07;;;;;;;27.44;43.44;97728.47;10329017;28;20803;-56
2023/08/19 17:00:05;;;;;;;10.23;6.93;;;;;;;27.15;43.36;97710.88;10330834;28;20060;-56
2023/08/19 17:05:05;;;;;;;8.02;6.43;;;;;;;27.08;43.91;97724.72;10328762;28;20064;-56
2023/08/19 17:10:05;;;;;;;7.80;5.82;;;;;;;26.90;43.82;97727.69;10329733;28;20064;-56
2023/08/19 17:15:04;;;;;;;11.05;7.00;;;;;;;26.68;43.97;97725.59;10328340;28;21454;-57
2023/08/19 17:20:06;;;;;;;10.60;7.80;;;;;;;26.43;45.29;97729.03;10323751;28;20122;-56
2023/08/19 17:25:05;;;;;;;15.55;7.03;;;;;;;26.21;46.11;97747.38;10326218;28;20112;-56
2023/08/19 17:30:05;;;;;;;10.20;6.00;;;;;;;25.97;46.64;97742.59;10326117;28;20262;-56
2023/08/19 17:35:05;;;;;;;9.18;6.00;;;;;;;25.42;47.46;97698.22;10325686;28;20104;-56
2023/08/19 17:40:09;;;;;;;9.00;7.00;;;;;;;25.49;47.68;97750.88;10326158;28;20061;-56
2023/08/19 17:45:09;;;;;;;10.85;6.40;;;;;;;25.31;48.37;97749.34;10324303;28;20100;-56
2023/08/19 17:50:08;;;;;;;11.82;6.60;;;;;;;24.86;48.79;97721.94;10326885;28;20057;-56
2023/08/19 17:55:07;;;;;;;10.07;6.63;;;;;;;24.85;49.10;97747.63;10326556;28;20452;-56
2023/08/19 18:00:07;;;;;;;9.15;5.95;;;;;;;24.79;49.50;97774.53;10326718;28;20065;-55
2023/08/19 18:05:06;;;;;;;11.35;6.95;;;;;;;24.62;49.74;97772.00;10326701;28;20145;-55
2023/08/19 18:10:05;;;;;;;12.63;7.22;;;;;;;24.53;50.14;97780.50;10327522;28;20152;-56
2023/08/19 18:15:05;;;;;;;14.27;8.25;;;;;;;24.35;50.77;97775.28;10326170;28;20049;-55
2023/08/19 18:20:05;;;;;;;10.48;7.50;;;;;;;24.02;51.24;97765.59;10326845;28;20107;-56
2023/08/19 18:25:04;;;;;;;11.05;7.05;;;;;;;23.71;52.04;97752.31;10324696;28;20148;-55
2023/08/19 18:30:04;;;;;;;10.30;6.70;;;;;;;23.78;52.62;97786.34;10322825;28;20138;-56
2023/08/19 18:35:03;;;;;;;9.75;6.90;;;;;;;23.64;53.26;97788.88;10325523;28;20515;-55
2023/08/19 18:40:04;;;;;;;10.23;6.30;;;;;;;23.47;54.33;97787.13;10326302;28;20471;-56
2023/08/19 18:45:04;;;;;;;15.90;9.07;;;;;;;23.25;55.06;97783.84;10325172;28;20124;-56
2023/08/19 18:50:04;;;;;;;12.45;9.02;;;;;;;23.13;55.67;97793.28;10326610;28;20075;-55
2023/08/19 18:55:06;;;;;;;12.40;9.27;;;;;;;23.00;56.38;97793.94;10325322;28;20068;-55
2023/08/19 19:00:08;;;;;;;10.85;8.60;;;;;;;22.96;57.82;97802.09;10326383;28;20116;-55
2023/08/19 19:05:07;;;;;;;18.35;10.95;;;;;;;22.78;58.82;97809.16;10325282;28;20124;-55
2023/08/19 19:10:07;;;;;;;14.88;9.63;;;;;;;22.66;59.34;97813.22;10323994;28;20049;-55
2023/08/19 19:15:06;;;;;;;11.98;9.23;;;;;;;22.65;59.76;97813.28;10322957;28;20916;-55
2023/08/19 19:20:06;;;;;;;17.58;11.77;;;;;;;22.57;60.11;97817.16;10325623;28;20045;-55
2023/08/19 19:25:05;;;;;;;13.55;9.13;;;;;;;22.53;60.74;97820.03;10324060;28;20112;-55
2023/08/19 19:30:05;;;;;;;18.95;9.65;;;;;;;22.36;62.21;97829.63;10325034;28;20060;-55
2023/08/19 19:35:06;;;;;;;15.70;9.02;;;;;;;21.91;62.59;97783.25;10325518;28;20049;-55
2023/08/19 19:40:07;;;;;;;11.68;8.20;;;;;;;22.22;62.21;97837.38;10332011;28;20524;-55
2023/08/19 19:45:08;;;;;;;14.15;8.13;;;;;;;22.12;62.27;97836.09;10335259;28;20065;-55
2023/08/19 19:50:08;;;;;;;9.40;6.95;;;;;;;22.00;62.68;97841.94;10335659;28;20448;-55
2023/08/19 19:55:08;;;;;;;14.68;8.00;;;;;;;21.84;62.85;97839.97;10335175;28;20076;-55
2023/08/19 20:00:11;;;;;;;10.60;7.60;;;;;;;21.76;63.31;97842.09;10335835;28;20091;-55
2023/08/19 20:05:10;;;;;;;12.43;9.00;;;;;;;21.68;63.92;97836.28;10334741;28;20495;-55
2023/08/19 20:10:09;;;;;;;13.23;8.77;;;;;;;21.14;65.16;97788.44;10334308;28;20053;-55
2023/08/19 20:15:08;;;;;;;13.68;9.57;;;;;;;21.11;66.58;97821.09;10334879;28;20065;-55
2023/08/19 20:20:07;;;;;;;14.48;9.15;;;;;;;21.25;66.95;97854.00;10335050;28;20683;-55
2023/08/19 20:25:07;;;;;;;14.98;8.63;;;;;;;21.08;66.82;97823.88;10333919;28;20155;-55
2023/08/19 20:30:06;;;;;;;14.48;8.95;;;;;;;21.16;67.59;97849.09;10334301;28;20061;-55
2023/08/19 20:35:06;;;;;;;11.93;9.23;;;;;;;20.84;68.60;97822.25;10332885;28;20053;-56
2023/08/19 20:40:05;;;;;;;12.45;8.52;;;;;;;20.63;69.37;97797.63;10330353;28;20061;-55
2023/08/19 20:45:06;;;;;;;12.63;8.43;;;;;;;20.82;70.16;97851.34;10329797;28;20155;-55
2023/08/19 20:50:05;;;;;;;11.82;8.43;;;;;;;20.78;70.31;97854.19;10328465;28;20496;-55
2023/08/19 20:55:04;;;;;;;13.75;9.25;;;;;;;20.69;70.82;97850.97;10328199;28;20057;-55
2023/08/19 21:00:05;;;;;;;13.65;8.30;;;;;;;20.63;71.14;97850.34;10329769;28;20095;-55
2023/08/19 21:05:04;;;;;;;10.18;8.13;;;;;;;20.39;71.22;97817.91;10328262;28;20105;-55
2023/08/19 21:10:14;;;;;;;11.63;8.15;;;;;;;20.55;71.40;97853.31;10330469;28;20071;-55
2023/08/19 21:15:13;;;;;;;17.02;10.20;;;;;;;20.51;71.75;97859.63;10328308;28;20444;-55
2023/08/19 21:20:12;;;;;;;12.68;8.95;;;;;;;20.22;72.59;97818.56;10328626;28;20748;-55
2023/08/19 21:25:11;;;;;;;11.38;9.02;;;;;;;20.35;73.81;97871.66;10328115;28;20112;-54
2023/08/19 21:30:10;;;;;;;15.15;9.30;;;;;;;20.12;73.97;97843.53;10328441;28;20056;-54
2023/08/19 21:35:09;;;;;;;13.32;9.40;;;;;;;19.99;73.44;97817.66;10328902;28;20048;-54
2023/08/19 21:40:09;;;;;;;13.65;9.05;;;;;;;20.24;73.97;97870.28;10327943;28;20029;-54
2023/08/19 21:45:08;;;;;;;18.38;9.77;;;;;;;20.25;73.42;97872.00;10327245;28;20128;-54
2023/08/19 21:50:08;;;;;;;16.05;9.13;;;;;;;20.11;73.98;97866.41;10328548;28;20068;-54
2023/08/19 21:55:07;;;;;;;12.85;9.60;;;;;;;20.13;74.38;97883.00;10326069;28;20111;-54
2023/08/19 22:00:09;;;;;;;20.35;10.18;;;;;;;20.05;74.68;97885.94;10327147;28;20132;-55
2023/08/19 22:05:09;;;;;;;12.60;9.85;;;;;;;20.05;74.30;97885.09;10326470;28;20120;-54
2023/08/19 22:10:09;;;;;;;15.30;10.75;;;;;;;20.07;73.95;97884.09;10320343;28;20584;-54
2023/08/19 22:15:08;;;;;;;11.80;9.35;;;;;;;20.02;73.81;97879.91;10322788;28;20104;-54
2023/08/19 22:20:07;;;;;;;15.25;9.63;;;;;;;20.05;73.92;97888.56;10325116;28;20057;-54
2023/08/19 22:25:07;;;;;;;13.60;9.25;;;;;;;19.99;74.85;97903.72;10324699;28;20121;-54
2023/08/19 22:30:07;;;;;;;12.25;8.57;;;;;;;19.88;75.30;97904.13;10326308;28;20120;-54
2023/08/19 22:35:06;;;;;;;11.95;8.82;;;;;;;19.32;75.94;97868.34;10326183;28;20061;-54
2023/08/19 22:40:07;;;;;;;12.80;9.73;;;;;;;19.31;77.32;97913.13;10327748;28;20618;-54
2023/08/19 22:45:07;;;;;;;11.50;8.93;;;;;;;19.25;76.96;97908.91;10328028;28;20069;-54
2023/08/19 22:50:07;;;;;;;15.18;8.60;;;;;;;19.03;76.85;97866.69;10327387;28;20061;-54
2023/08/19 22:55:06;;;;;;;13.25;8.70;;;;;;;19.22;77.45;97901.13;10328761;28;20071;-54
2023/08/19 23:00:06;;;;;;;13.70;9.50;;;;;;;19.20;77.56;97905.56;10329153;28;20063;-54